sensor_id;sensor_type;location;lat;lon;timestamp;pressure;altitude;pressure_sealevel;temperature;humidity
61337;BME280;47212;41.326;2.104;2022-07-06T00:03:55;101679.22;;;26.40;59.22
61337;BME280;47212;41.326;2.104;2022-07-06T00:08:59;101684.88;;;26.31;59.84
61337;BME280;47212;41.326;2.104;2022-07-06T00:14:05;101696.63;;;26.25;59.79
61337;BME280;47212;41.326;2.104;2022-07-06T00:19:09;101702.88;;;26.22;60.04
61337;BME280;47212;41.326;2.104;2022-07-06T00:24:11;101698.47;;;26.21;59.90
61337;BME280;47212;41.326;2.104;2022-07-06T00:29:13;101705.47;;;26.27;59.85
61337;BME280;47212;41.326;2.104;2022-07-06T00:34:15;101725.00;;;26.27;60.01
61337;BME280;47212;41.326;2.104;2022-07-06T00:39:19;101714.53;;;26.24;59.92
61337;BME280;47212;41.326;2.104;2022-07-06T00:44:21;101701.72;;;26.23;59.73
61337;BME280;47212;41.326;2.104;2022-07-06T00:49:23;101702.44;;;26.20;59.71
61337;BME280;47212;41.326;2.104;2022-07-06T00:54:45;101675.91;;;26.14;60.62
61337;BME280;47212;41.326;2.104;2022-07-06T00:59:53;101669.84;;;26.12;59.91
61337;BME280;47212;41.326;2.104;2022-07-06T01:05:29;101674.28;;;26.13;59.79
61337;BME280;47212;41.326;2.104;2022-07-06T01:10:31;101653.56;;;26.14;59.44
61337;BME280;47212;41.326;2.104;2022-07-06T01:15:34;101651.94;;;26.13;59.71
61337;BME280;47212;41.326;2.104;2022-07-06T01:20:36;101653.56;;;26.14;59.29
61337;BME280;47212;41.326;2.104;2022-07-06T01:25:38;101633.56;;;26.12;59.07
61337;BME280;47212;41.326;2.104;2022-07-06T01:30:40;101631.94;;;26.11;58.80
61337;BME280;47212;41.326;2.104;2022-07-06T01:35:44;101639.84;;;26.09;58.74
61337;BME280;47212;41.326;2.104;2022-07-06T01:40:47;101631.00;;;26.07;58.72
61337;BME280;47212;41.326;2.104;2022-07-06T01:45:49;101630.53;;;26.05;58.60
61337;BME280;47212;41.326;2.104;2022-07-06T01:50:51;101646.00;;;26.02;58.58
61337;BME280;47212;41.326;2.104;2022-07-06T01:55:53;101618.63;;;25.95;58.80
61337;BME280;47212;41.326;2.104;2022-07-06T02:00:56;101627.69;;;25.92;58.74
61337;BME280;47212;41.326;2.104;2022-07-06T02:05:58;101636.75;;;25.89;59.34
61337;BME280;47212;41.326;2.104;2022-07-06T02:11:03;101664.88;;;25.84;59.27
61337;BME280;47212;41.326;2.104;2022-07-06T02:16:08;101812.06;;;25.79;59.50
61337;BME280;47212;41.326;2.104;2022-07-06T02:21:11;101968.97;;;25.67;59.88
61337;BME280;47212;41.326;2.104;2022-07-06T02:26:20;101971.78;;;25.58;60.06
61337;BME280;47212;41.326;2.104;2022-07-06T02:31:24;101905.00;;;25.62;60.05
61337;BME280;47212;41.326;2.104;2022-07-06T02:36:26;101869.44;;;25.59;60.78
61337;BME280;47212;41.326;2.104;2022-07-06T02:41:28;101847.84;;;25.47;61.92
61337;BME280;47212;41.326;2.104;2022-07-06T02:46:30;101885.09;;;25.43;62.43
61337;BME280;47212;41.326;2.104;2022-07-06T02:51:33;101845.09;;;25.38;62.02
61337;BME280;47212;41.326;2.104;2022-07-06T02:56:35;101814.44;;;25.38;62.82
61337;BME280;47212;41.326;2.104;2022-07-06T03:01:40;101829.53;;;25.37;63.87
61337;BME280;47212;41.326;2.104;2022-07-06T03:06:46;101825.31;;;25.31;64.16
61337;BME280;47212;41.326;2.104;2022-07-06T03:11:54;101845.50;;;25.28;64.92
61337;BME280;47212;41.326;2.104;2022-07-06T03:17:00;101855.97;;;25.31;64.31
61337;BME280;47212;41.326;2.104;2022-07-06T03:22:05;101883.16;;;25.34;64.95
61337;BME280;47212;41.326;2.104;2022-07-06T03:27:08;101844.63;;;25.36;64.38
61337;BME280;47212;41.326;2.104;2022-07-06T03:32:17;101856.25;;;25.38;65.94
61337;BME280;47212;41.326;2.104;2022-07-06T03:37:20;101831.50;;;25.37;65.94
61337;BME280;47212;41.326;2.104;2022-07-06T03:42:30;101865.63;;;25.34;65.17
61337;BME280;47212;41.326;2.104;2022-07-06T03:47:34;101888.94;;;25.29;65.09
61337;BME280;47212;41.326;2.104;2022-07-06T03:52:40;101931.72;;;25.25;64.80
61337;BME280;47212;41.326;2.104;2022-07-06T03:57:46;101922.25;;;25.17;65.03
61337;BME280;47212;41.326;2.104;2022-07-06T04:02:58;101927.34;;;25.15;64.76
61337;BME280;47212;41.326;2.104;2022-07-06T04:08:16;101938.28;;;25.12;65.17
61337;BME280;47212;41.326;2.104;2022-07-06T04:13:47;101952.06;;;25.08;65.96
61337;BME280;47212;41.326;2.104;2022-07-06T04:18:53;101930.44;;;25.05;65.80
61337;BME280;47212;41.326;2.104;2022-07-06T04:24:00;101933.06;;;25.01;65.94
61337;BME280;47212;41.326;2.104;2022-07-06T04:29:09;101916.69;;;25.00;66.18
61337;BME280;47212;41.326;2.104;2022-07-06T04:34:15;101911.63;;;25.02;65.63
61337;BME280;47212;41.326;2.104;2022-07-06T04:39:22;101912.75;;;25.01;66.03
61337;BME280;47212;41.326;2.104;2022-07-06T04:44:27;101894.41;;;25.00;66.54
61337;BME280;47212;41.326;2.104;2022-07-06T04:49:55;101913.09;;;24.99;66.45
61337;BME280;47212;41.326;2.104;2022-07-06T04:54:58;101898.97;;;24.96;66.09
61337;BME280;47212;41.326;2.104;2022-07-06T05:00:03;101882.13;;;24.92;66.34
61337;BME280;47212;41.326;2.104;2022-07-06T05:05:13;101855.78;;;24.81;66.83
61337;BME280;47212;41.326;2.104;2022-07-06T05:10:17;101906.06;;;24.76;67.01
61337;BME280;47212;41.326;2.104;2022-07-06T05:15:31;101971.44;;;24.78;66.80
61337;BME280;47212;41.326;2.104;2022-07-06T05:20:42;101952.41;;;24.81;68.22
61337;BME280;47212;41.326;2.104;2022-07-06T05:25:49;101844.66;;;24.72;68.27
61337;BME280;47212;41.326;2.104;2022-07-06T05:30:54;101761.13;;;24.72;68.94
61337;BME280;47212;41.326;2.104;2022-07-06T05:36:06;101750.16;;;24.76;69.13
61337;BME280;47212;41.326;2.104;2022-07-06T05:41:15;101691.34;;;24.77;70.29
61337;BME280;47212;41.326;2.104;2022-07-06T05:46:23;101621.25;;;24.75;69.91
61337;BME280;47212;41.326;2.104;2022-07-06T05:51:35;101629.88;;;24.83;70.21
61337;BME280;47212;41.326;2.104;2022-07-06T05:56:37;101689.78;;;24.97;69.96
61337;BME280;47212;41.326;2.104;2022-07-06T06:01:47;101770.31;;;25.11;70.72
61337;BME280;47212;41.326;2.104;2022-07-06T06:06:58;101747.88;;;25.16;70.47
61337;BME280;47212;41.326;2.104;2022-07-06T06:12:04;101744.06;;;25.21;69.61
61337;BME280;47212;41.326;2.104;2022-07-06T06:17:07;101749.91;;;25.28;69.56
61337;BME280;47212;41.326;2.104;2022-07-06T06:22:14;101714.66;;;25.32;69.21
61337;BME280;47212;41.326;2.104;2022-07-06T06:27:26;101740.50;;;25.41;68.95
61337;BME280;47212;41.326;2.104;2022-07-06T06:32:30;101769.78;;;25.47;68.84
61337;BME280;47212;41.326;2.104;2022-07-06T06:37:36;101754.28;;;25.58;68.80
61337;BME280;47212;41.326;2.104;2022-07-06T06:42:40;101723.38;;;25.72;68.16
61337;BME280;47212;41.326;2.104;2022-07-06T06:47:49;101714.59;;;25.82;67.77
61337;BME280;47212;41.326;2.104;2022-07-06T06:52:55;101747.50;;;25.89;67.57
61337;BME280;47212;41.326;2.104;2022-07-06T06:58:00;101806.56;;;25.91;67.72
61337;BME280;47212;41.326;2.104;2022-07-06T07:03:13;101775.75;;;25.87;67.50
61337;BME280;47212;41.326;2.104;2022-07-06T07:08:29;101783.16;;;25.83;68.22
61337;BME280;47212;41.326;2.104;2022-07-06T07:13:36;101821.94;;;25.76;69.28
61337;BME280;47212;41.326;2.104;2022-07-06T07:18:46;101825.13;;;25.66;69.88
61337;BME280;47212;41.326;2.104;2022-07-06T07:24:05;101815.97;;;25.57;69.61
61337;BME280;47212;41.326;2.104;2022-07-06T07:29:16;101781.22;;;25.54;70.08
61337;BME280;47212;41.326;2.104;2022-07-06T07:34:19;101782.53;;;25.57;70.05
61337;BME280;47212;41.326;2.104;2022-07-06T07:39:41;101797.28;;;25.57;69.81
61337;BME280;47212;41.326;2.104;2022-07-06T07:44:58;101809.25;;;25.58;69.75
61337;BME280;47212;41.326;2.104;2022-07-06T07:50:08;101822.16;;;25.62;70.60
61337;BME280;47212;41.326;2.104;2022-07-06T07:55:24;101819.38;;;25.62;69.34
61337;BME280;47212;41.326;2.104;2022-07-06T08:00:44;101819.84;;;25.64;71.91
61337;BME280;47212;41.326;2.104;2022-07-06T08:06:06;101826.75;;;25.67;70.32
61337;BME280;47212;41.326;2.104;2022-07-06T08:11:12;101848.38;;;25.70;70.11
61337;BME280;47212;41.326;2.104;2022-07-06T08:16:23;101825.06;;;25.75;69.98
61337;BME280;47212;41.326;2.104;2022-07-06T08:21:29;101822.88;;;25.80;69.46
61337;BME280;47212;41.326;2.104;2022-07-06T08:26:33;101808.88;;;25.89;69.10
61337;BME280;47212;41.326;2.104;2022-07-06T08:31:43;101788.13;;;25.98;69.61
61337;BME280;47212;41.326;2.104;2022-07-06T08:37:14;101772.16;;;26.08;69.84
61337;BME280;47212;41.326;2.104;2022-07-06T08:42:32;101750.78;;;26.12;69.04
61337;BME280;47212;41.326;2.104;2022-07-06T08:47:44;101755.78;;;26.18;67.73
61337;BME280;47212;41.326;2.104;2022-07-06T08:53:03;101767.00;;;26.30;67.95
61337;BME280;47212;41.326;2.104;2022-07-06T08:58:29;101766.94;;;26.39;66.83
61337;BME280;47212;41.326;2.104;2022-07-06T09:03:32;101737.19;;;26.55;66.66
61337;BME280;47212;41.326;2.104;2022-07-06T09:08:54;101710.19;;;26.72;63.97
61337;BME280;47212;41.326;2.104;2022-07-06T09:14:13;101724.88;;;26.93;62.98
61337;BME280;47212;41.326;2.104;2022-07-06T09:19:52;101728.41;;;27.14;61.84
61337;BME280;47212;41.326;2.104;2022-07-06T09:25:22;101706.59;;;27.32;58.39
61337;BME280;47212;41.326;2.104;2022-07-06T09:30:29;101715.78;;;27.33;58.55
61337;BME280;47212;41.326;2.104;2022-07-06T09:35:45;101714.06;;;27.28;57.65
61337;BME280;47212;41.326;2.104;2022-07-06T09:41:11;101706.84;;;27.27;59.30
61337;BME280;47212;41.326;2.104;2022-07-06T09:46:25;101714.88;;;27.28;58.51
61337;BME280;47212;41.326;2.104;2022-07-06T09:51:47;101727.56;;;27.26;60.14
61337;BME280;47212;41.326;2.104;2022-07-06T09:57:02;101769.97;;;27.28;60.97
61337;BME280;47212;41.326;2.104;2022-07-06T10:02:20;101820.84;;;27.34;60.63
61337;BME280;47212;41.326;2.104;2022-07-06T10:07:33;101846.47;;;27.48;60.07
61337;BME280;47212;41.326;2.104;2022-07-06T10:12:47;101827.72;;;27.85;56.86
61337;BME280;47212;41.326;2.104;2022-07-06T10:18:13;101845.56;;;28.20;52.90
61337;BME280;47212;41.326;2.104;2022-07-06T10:23:26;101848.25;;;28.17;54.40
61337;BME280;47212;41.326;2.104;2022-07-06T10:28:35;101851.69;;;28.38;54.77
61337;BME280;47212;41.326;2.104;2022-07-06T10:33:42;101883.16;;;28.75;53.72
61337;BME280;47212;41.326;2.104;2022-07-06T10:38:51;101895.28;;;28.79;52.85
61337;BME280;47212;41.326;2.104;2022-07-06T10:44:21;101932.47;;;28.64;54.28
61337;BME280;47212;41.326;2.104;2022-07-06T10:49:27;101970.09;;;28.51;54.05
61337;BME280;47212;41.326;2.104;2022-07-06T10:54:56;101994.03;;;28.36;52.46
61337;BME280;47212;41.326;2.104;2022-07-06T11:00:05;101987.03;;;28.42;50.26
61337;BME280;47212;41.326;2.104;2022-07-06T11:05:42;101981.28;;;28.51;48.48
61337;BME280;47212;41.326;2.104;2022-07-06T11:17:01;101898.13;;;28.39;49.76
61337;BME280;47212;41.326;2.104;2022-07-06T11:22:15;101851.03;;;28.29;50.52
61337;BME280;47212;41.326;2.104;2022-07-06T11:27:18;101805.31;;;28.25;51.36
61337;BME280;47212;41.326;2.104;2022-07-06T11:32:30;101922.91;;;28.25;52.57
61337;BME280;47212;41.326;2.104;2022-07-06T11:37:47;102011.66;;;28.12;51.12
61337;BME280;47212;41.326;2.104;2022-07-06T11:42:56;102010.50;;;27.89;52.64
61337;BME280;47212;41.326;2.104;2022-07-06T11:48:12;101999.59;;;27.51;52.94
61337;BME280;47212;41.326;2.104;2022-07-06T11:53:23;101979.13;;;27.14;53.99
61337;BME280;47212;41.326;2.104;2022-07-06T11:58:31;101914.59;;;26.86;55.49
61337;BME280;47212;41.326;2.104;2022-07-06T12:03:35;101884.78;;;26.78;56.37
61337;BME280;47212;41.326;2.104;2022-07-06T12:08:54;101844.28;;;26.84;57.61
61337;BME280;47212;41.326;2.104;2022-07-06T12:14:18;101865.28;;;26.90;57.67
61337;BME280;47212;41.326;2.104;2022-07-06T12:19:23;101871.34;;;26.92;56.92
61337;BME280;47212;41.326;2.104;2022-07-06T12:24:28;101868.66;;;26.95;57.29
61337;BME280;47212;41.326;2.104;2022-07-06T12:30:12;101808.50;;;26.98;56.65
61337;BME280;47212;41.326;2.104;2022-07-06T12:35:28;101829.34;;;27.01;57.54
61337;BME280;47212;41.326;2.104;2022-07-06T12:40:31;101849.03;;;27.04;58.54
61337;BME280;47212;41.326;2.104;2022-07-06T12:45:36;101883.84;;;27.07;58.31
61337;BME280;47212;41.326;2.104;2022-07-06T12:50:52;101877.91;;;27.08;58.36
61337;BME280;47212;41.326;2.104;2022-07-06T12:56:15;101858.00;;;27.10;58.38
61337;BME280;47212;41.326;2.104;2022-07-06T13:01:23;101861.63;;;27.22;58.90
61337;BME280;47212;41.326;2.104;2022-07-06T13:06:39;101852.31;;;27.43;59.81
61337;BME280;47212;41.326;2.104;2022-07-06T13:11:48;101818.16;;;27.62;58.75
61337;BME280;47212;41.326;2.104;2022-07-06T13:16:53;101806.84;;;27.82;58.36
61337;BME280;47212;41.326;2.104;2022-07-06T13:22:11;101817.97;;;28.07;57.14
61337;BME280;47212;41.326;2.104;2022-07-06T13:27:22;101787.13;;;28.19;56.90
61337;BME280;47212;41.326;2.104;2022-07-06T13:32:45;101766.41;;;28.08;56.01
61337;BME280;47212;41.326;2.104;2022-07-06T13:37:50;101761.13;;;27.90;56.01
61337;BME280;47212;41.326;2.104;2022-07-06T13:42:53;101752.94;;;27.98;56.25
61337;BME280;47212;41.326;2.104;2022-07-06T13:47:57;101753.59;;;28.07;55.72
61337;BME280;47212;41.326;2.104;2022-07-06T13:53:00;101731.84;;;28.16;54.92
61337;BME280;47212;41.326;2.104;2022-07-06T13:58:02;101721.06;;;28.30;54.58
61337;BME280;47212;41.326;2.104;2022-07-06T14:03:05;101732.63;;;28.44;54.48
61337;BME280;47212;41.326;2.104;2022-07-06T14:08:07;101705.00;;;28.59;54.16
61337;BME280;47212;41.326;2.104;2022-07-06T14:13:10;101710.34;;;28.64;56.09
61337;BME280;47212;41.326;2.104;2022-07-06T14:18:20;101709.78;;;28.42;57.60
61337;BME280;47212;41.326;2.104;2022-07-06T14:23:25;101702.22;;;28.15;57.87
61337;BME280;47212;41.326;2.104;2022-07-06T14:28:29;101691.69;;;27.80;58.44
61337;BME280;47212;41.326;2.104;2022-07-06T14:33:38;101687.03;;;27.60;57.22
61337;BME280;47212;41.326;2.104;2022-07-06T14:38:52;101691.25;;;27.66;57.65
61337;BME280;47212;41.326;2.104;2022-07-06T14:44:02;101686.47;;;27.67;57.81
61337;BME280;47212;41.326;2.104;2022-07-06T14:49:11;101674.91;;;27.68;57.30
61337;BME280;47212;41.326;2.104;2022-07-06T14:54:36;101673.03;;;27.72;56.07
61337;BME280;47212;41.326;2.104;2022-07-06T14:59:45;101674.91;;;27.68;56.55
61337;BME280;47212;41.326;2.104;2022-07-06T15:04:52;101667.91;;;27.74;56.79
61337;BME280;47212;41.326;2.104;2022-07-06T15:09:56;101663.25;;;27.78;55.86
61337;BME280;47212;41.326;2.104;2022-07-06T15:15:05;101679.06;;;27.86;54.75
61337;BME280;47212;41.326;2.104;2022-07-06T15:20:44;101674.75;;;28.05;54.99
61337;BME280;47212;41.326;2.104;2022-07-06T15:25:54;101658.63;;;28.14;55.56
61337;BME280;47212;41.326;2.104;2022-07-06T15:31:14;101666.19;;;28.13;55.57
61337;BME280;47212;41.326;2.104;2022-07-06T15:36:28;101655.09;;;28.17;54.64
61337;BME280;47212;41.326;2.104;2022-07-06T15:41:37;101644.91;;;28.25;54.80
61337;BME280;47212;41.326;2.104;2022-07-06T15:46:44;101667.41;;;28.28;54.76
61337;BME280;47212;41.326;2.104;2022-07-06T15:52:12;101650.53;;;28.25;54.87
61337;BME280;47212;41.326;2.104;2022-07-06T15:57:21;101635.75;;;28.12;54.96
61337;BME280;47212;41.326;2.104;2022-07-06T16:02:29;101634.13;;;27.95;54.81
61337;BME280;47212;41.326;2.104;2022-07-06T16:09:02;101647.03;;;27.72;54.11
61337;BME280;47212;41.326;2.104;2022-07-06T16:15:06;101646.63;;;27.57;53.93
61337;BME280;47212;41.326;2.104;2022-07-06T16:20:36;101658.66;;;27.46;54.44
61337;BME280;47212;41.326;2.104;2022-07-06T16:26:40;101670.59;;;27.31;54.71
61337;BME280;47212;41.326;2.104;2022-07-06T16:32:53;101666.66;;;27.19;54.98
61337;BME280;47212;41.326;2.104;2022-07-06T16:38:03;101670.16;;;27.16;55.48
61337;BME280;47212;41.326;2.104;2022-07-06T16:43:15;101670.75;;;27.10;55.97
61337;BME280;47212;41.326;2.104;2022-07-06T16:48:21;101669.59;;;27.11;58.01
61337;BME280;47212;41.326;2.104;2022-07-06T16:53:29;101671.59;;;26.98;59.98
61337;BME280;47212;41.326;2.104;2022-07-06T16:58:34;101685.28;;;26.79;60.67
61337;BME280;47212;41.326;2.104;2022-07-06T17:03:42;101713.22;;;26.66;60.80
61337;BME280;47212;41.326;2.104;2022-07-06T17:08:44;101736.47;;;26.58;60.74
61337;BME280;47212;41.326;2.104;2022-07-06T17:13:47;101744.41;;;26.56;60.43
61337;BME280;47212;41.326;2.104;2022-07-06T17:18:52;101755.56;;;26.56;59.97
61337;BME280;47212;41.326;2.104;2022-07-06T17:23:57;101748.38;;;26.67;59.76
61337;BME280;47212;41.326;2.104;2022-07-06T17:29:02;101757.44;;;26.77;59.08
61337;BME280;47212;41.326;2.104;2022-07-06T17:34:07;101775.72;;;26.86;58.85
61337;BME280;47212;41.326;2.104;2022-07-06T17:39:09;101759.59;;;26.92;58.73
61337;BME280;47212;41.326;2.104;2022-07-06T17:44:15;101778.59;;;26.99;58.53
61337;BME280;47212;41.326;2.104;2022-07-06T17:50:23;101794.31;;;27.03;58.36
61337;BME280;47212;41.326;2.104;2022-07-06T17:56:28;101783.72;;;27.09;58.29
61337;BME280;47212;41.326;2.104;2022-07-06T18:02:36;101787.91;;;27.03;57.63
61337;BME280;47212;41.326;2.104;2022-07-06T18:07:48;101784.72;;;26.92;56.68
61337;BME280;47212;41.326;2.104;2022-07-06T18:12:59;101770.03;;;26.83;55.77
61337;BME280;47212;41.326;2.104;2022-07-06T18:18:14;101757.69;;;26.72;54.67
61337;BME280;47212;41.326;2.104;2022-07-06T18:23:28;101760.44;;;26.59;55.38
61337;BME280;47212;41.326;2.104;2022-07-06T18:28:42;101762.88;;;26.49;55.37
61337;BME280;47212;41.326;2.104;2022-07-06T18:33:47;101762.97;;;26.40;55.04
61337;BME280;47212;41.326;2.104;2022-07-06T18:39:15;101771.28;;;26.28;54.96
61337;BME280;47212;41.326;2.104;2022-07-06T18:50:05;101768.47;;;26.16;55.28
61337;BME280;47212;41.326;2.104;2022-07-06T18:55:08;101762.41;;;26.14;55.12
61337;BME280;47212;41.326;2.104;2022-07-06T19:00:14;101761.25;;;26.15;54.76
61337;BME280;47212;41.326;2.104;2022-07-06T19:05:35;101747.28;;;26.15;54.22
61337;BME280;47212;41.326;2.104;2022-07-06T19:10:48;101749.59;;;26.13;54.26
61337;BME280;47212;41.326;2.104;2022-07-06T19:15:56;101745.19;;;26.12;54.17
61337;BME280;47212;41.326;2.104;2022-07-06T19:21:04;101741.94;;;26.10;54.39
61337;BME280;47212;41.326;2.104;2022-07-06T19:26:14;101730.63;;;26.06;54.44
61337;BME280;47212;41.326;2.104;2022-07-06T19:31:16;101728.31;;;26.08;54.13
61337;BME280;47212;41.326;2.104;2022-07-06T19:36:22;101727.84;;;26.06;54.38
61337;BME280;47212;41.326;2.104;2022-07-06T19:41:28;101717.72;;;26.01;54.39
61337;BME280;47212;41.326;2.104;2022-07-06T19:46:31;101713.47;;;25.95;54.45
61337;BME280;47212;41.326;2.104;2022-07-06T19:51:36;101698.81;;;25.86;54.64
61337;BME280;47212;41.326;2.104;2022-07-06T19:56:43;101712.97;;;25.81;55.07
61337;BME280;47212;41.326;2.104;2022-07-06T20:01:55;101700.84;;;25.77;54.97
61337;BME280;47212;41.326;2.104;2022-07-06T20:07:03;101697.59;;;25.75;55.34
61337;BME280;47212;41.326;2.104;2022-07-06T20:12:12;101701.53;;;25.74;55.26
61337;BME280;47212;41.326;2.104;2022-07-06T20:17:15;101712.56;;;25.70;55.37
61337;BME280;47212;41.326;2.104;2022-07-06T20:22:18;101732.91;;;25.71;55.72
61337;BME280;47212;41.326;2.104;2022-07-06T20:27:22;101740.44;;;25.70;55.81
61337;BME280;47212;41.326;2.104;2022-07-06T20:32:24;101737.19;;;25.68;55.71
61337;BME280;47212;41.326;2.104;2022-07-06T20:37:26;101736.84;;;25.70;55.70
61337;BME280;47212;41.326;2.104;2022-07-06T20:42:28;101735.22;;;25.69;55.85
61337;BME280;47212;41.326;2.104;2022-07-06T20:47:32;101730.13;;;25.71;55.58
61337;BME280;47212;41.326;2.104;2022-07-06T20:52:35;101755.69;;;25.73;55.42
61337;BME280;47212;41.326;2.104;2022-07-06T20:57:39;101746.16;;;25.74;55.30
61337;BME280;47212;41.326;2.104;2022-07-06T21:02:56;101751.75;;;25.74;55.62
61337;BME280;47212;41.326;2.104;2022-07-06T21:08:03;101760.44;;;25.73;55.01
61337;BME280;47212;41.326;2.104;2022-07-06T21:13:12;101758.00;;;25.71;54.98
61337;BME280;47212;41.326;2.104;2022-07-06T21:18:15;101771.47;;;25.69;54.95
61337;BME280;47212;41.326;2.104;2022-07-06T21:23:22;101790.50;;;25.67;54.95
61337;BME280;47212;41.326;2.104;2022-07-06T21:28:33;101805.09;;;25.64;54.94
61337;BME280;47212;41.326;2.104;2022-07-06T21:33:40;101806.94;;;25.60;54.79
61337;BME280;47212;41.326;2.104;2022-07-06T21:38:52;101825.28;;;25.61;54.75
61337;BME280;47212;41.326;2.104;2022-07-06T21:43:59;101832.50;;;25.62;54.71
61337;BME280;47212;41.326;2.104;2022-07-06T21:49:20;101825.44;;;25.64;54.53
61337;BME280;47212;41.326;2.104;2022-07-06T21:54:31;101835.13;;;25.67;54.56
61337;BME280;47212;41.326;2.104;2022-07-06T21:59:35;101851.34;;;25.65;54.24
61337;BME280;47212;41.326;2.104;2022-07-06T22:04:38;101856.78;;;25.61;54.56
61337;BME280;47212;41.326;2.104;2022-07-06T22:09:41;101859.44;;;25.58;54.57
61337;BME280;47212;41.326;2.104;2022-07-06T22:14:46;101860.78;;;25.52;55.12
61337;BME280;47212;41.326;2.104;2022-07-06T22:19:58;101872.78;;;25.44;55.16
61337;BME280;47212;41.326;2.104;2022-07-06T22:25:14;101875.28;;;25.36;55.30
61337;BME280;47212;41.326;2.104;2022-07-06T22:30:25;101881.53;;;25.33;55.42
61337;BME280;47212;41.326;2.104;2022-07-06T22:35:33;101878.94;;;25.28;55.66
61337;BME280;47212;41.326;2.104;2022-07-06T22:40:39;101885.34;;;25.20;55.18
61337;BME280;47212;41.326;2.104;2022-07-06T22:46:20;101875.22;;;25.16;55.39
61337;BME280;47212;41.326;2.104;2022-07-06T22:51:26;101878.16;;;25.11;55.30
61337;BME280;47212;41.326;2.104;2022-07-06T22:56:36;101877.53;;;25.05;55.22
61337;BME280;47212;41.326;2.104;2022-07-06T23:01:43;101884.91;;;25.01;55.26
61337;BME280;47212;41.326;2.104;2022-07-06T23:06:46;101884.56;;;24.94;55.48
61337;BME280;47212;41.326;2.104;2022-07-06T23:11:53;101884.56;;;24.94;55.78
61337;BME280;47212;41.326;2.104;2022-07-06T23:16:56;101884.25;;;24.87;55.86
61337;BME280;47212;41.326;2.104;2022-07-06T23:22:06;101875.41;;;24.85;56.20
61337;BME280;47212;41.326;2.104;2022-07-06T23:27:08;101869.53;;;24.77;56.08
61337;BME280;47212;41.326;2.104;2022-07-06T23:32:17;101876.09;;;24.73;56.55
61337;BME280;47212;41.326;2.104;2022-07-06T23:37:19;101872.00;;;24.70;56.92
61337;BME280;47212;41.326;2.104;2022-07-06T23:42:21;101865.66;;;24.61;56.50
61337;BME280;47212;41.326;2.104;2022-07-06T23:47:26;101865.81;;;24.56;56.89
61337;BME280;47212;41.326;2.104;2022-07-06T23:52:28;101866.00;;;24.51;57.10
61337;BME280;47212;41.326;2.104;2022-07-06T23:57:30;101850.63;;;24.45;56.61
